sensor_id;sensor_type;location;lat;lon;timestamp;temperature;humidity
67005;HTU21D;53920;51.094;5.902;2023-08-24T00:01:16;19.21;66.84
67005;HTU21D;53920;51.094;5.902;2023-08-24T00:03:45;19.20;66.67
67005;HTU21D;53920;51.094;5.902;2023-08-24T00:06:12;19.18;66.67
67005;HTU21D;53920;51.094;5.902;2023-08-24T00:08:38;19.16;66.69
67005;HTU21D;53920;51.094;5.902;2023-08-24T00:11:04;19.17;66.71
67005;HTU21D;53920;51.094;5.902;2023-08-24T00:13:31;19.18;66.91
67005;HTU21D;53920;51.094;5.902;2023-08-24T00:15:57;19.17;67.04
67005;HTU21D;53920;51.094;5.902;2023-08-24T00:18:24;19.21;67.14
67005;HTU21D;53920;51.094;5.902;2023-08-24T00:20:50;19.22;66.95
67005;HTU21D;53920;51.094;5.902;2023-08-24T00:23:17;19.21;66.81
67005;HTU21D;53920;51.094;5.902;2023-08-24T00:25:43;19.17;67.03
67005;HTU21D;53920;51.094;5.902;2023-08-24T00:28:10;19.16;67.12
67005;HTU21D;53920;51.094;5.902;2023-08-24T00:30:37;19.13;67.46
67005;HTU21D;53920;51.094;5.902;2023-08-24T00:33:03;19.14;67.82
67005;HTU21D;53920;51.094;5.902;2023-08-24T00:35:30;19.15;68.09
67005;HTU21D;53920;51.094;5.902;2023-08-24T00:37:56;19.17;68.17
67005;HTU21D;53920;51.094;5.902;2023-08-24T00:40:26;19.24;68.13
67005;HTU21D;53920;51.094;5.902;2023-08-24T00:42:52;19.30;68.12
67005;HTU21D;53920;51.094;5.902;2023-08-24T00:45:18;19.31;68.25
67005;HTU21D;53920;51.094;5.902;2023-08-24T00:47:46;19.37;68.27
67005;HTU21D;53920;51.094;5.902;2023-08-24T00:50:13;19.39;68.21
67005;HTU21D;53920;51.094;5.902;2023-08-24T00:52:41;19.42;68.12
67005;HTU21D;53920;51.094;5.902;2023-08-24T00:55:08;19.43;68.16
67005;HTU21D;53920;51.094;5.902;2023-08-24T00:57:37;19.41;68.09
67005;HTU21D;53920;51.094;5.902;2023-08-24T01:00:05;19.40;68.22
67005;HTU21D;53920;51.094;5.902;2023-08-24T01:02:33;19.41;68.27
67005;HTU21D;53920;51.094;5.902;2023-08-24T01:04:59;19.42;68.21
67005;HTU21D;53920;51.094;5.902;2023-08-24T01:07:26;19.40;68.23
67005;HTU21D;53920;51.094;5.902;2023-08-24T01:09:53;19.40;68.14
67005;HTU21D;53920;51.094;5.902;2023-08-24T01:15:04;19.37;67.97
67005;HTU21D;53920;51.094;5.902;2023-08-24T01:17:36;19.36;68.00
67005;HTU21D;53920;51.094;5.902;2023-08-24T01:20:04;19.37;67.94
67005;HTU21D;53920;51.094;5.902;2023-08-24T01:25:12;19.39;68.12
67005;HTU21D;53920;51.094;5.902;2023-08-24T01:27:42;19.39;68.06
67005;HTU21D;53920;51.094;5.902;2023-08-24T01:30:09;19.39;67.91
67005;HTU21D;53920;51.094;5.902;2023-08-24T01:32:36;19.37;67.72
67005;HTU21D;53920;51.094;5.902;2023-08-24T01:35:08;19.36;67.92
67005;HTU21D;53920;51.094;5.902;2023-08-24T01:37:36;19.33;68.19
67005;HTU21D;53920;51.094;5.902;2023-08-24T01:40:06;19.35;68.17
67005;HTU21D;53920;51.094;5.902;2023-08-24T01:42:59;19.35;68.13
67005;HTU21D;53920;51.094;5.902;2023-08-24T01:45:32;19.32;68.30
67005;HTU21D;53920;51.094;5.902;2023-08-24T01:48:01;19.33;68.45
67005;HTU21D;53920;51.094;5.902;2023-08-24T01:50:30;19.35;68.57
67005;HTU21D;53920;51.094;5.902;2023-08-24T01:52:57;19.36;68.67
67005;HTU21D;53920;51.094;5.902;2023-08-24T01:55:25;19.39;68.75
67005;HTU21D;53920;51.094;5.902;2023-08-24T01:57:51;19.47;68.56
67005;HTU21D;53920;51.094;5.902;2023-08-24T02:00:17;19.55;68.33
67005;HTU21D;53920;51.094;5.902;2023-08-24T02:02:46;19.63;68.00
67005;HTU21D;53920;51.094;5.902;2023-08-24T02:05:12;19.74;67.62
67005;HTU21D;53920;51.094;5.902;2023-08-24T02:07:39;19.81;67.36
67005;HTU21D;53920;51.094;5.902;2023-08-24T02:10:06;19.91;67.03
67005;HTU21D;53920;51.094;5.902;2023-08-24T02:12:32;19.91;67.10
67005;HTU21D;53920;51.094;5.902;2023-08-24T02:14:58;19.96;66.81
67005;HTU21D;53920;51.094;5.902;2023-08-24T02:17:26;20.01;66.79
67005;HTU21D;53920;51.094;5.902;2023-08-24T02:19:52;20.01;66.85
67005;HTU21D;53920;51.094;5.902;2023-08-24T02:22:18;20.03;67.06
67005;HTU21D;53920;51.094;5.902;2023-08-24T02:24:43;20.09;67.14
67005;HTU21D;53920;51.094;5.902;2023-08-24T02:27:10;20.11;67.01
67005;HTU21D;53920;51.094;5.902;2023-08-24T02:29:35;20.15;66.57
67005;HTU21D;53920;51.094;5.902;2023-08-24T02:32:02;20.16;66.48
67005;HTU21D;53920;51.094;5.902;2023-08-24T02:34:28;20.16;66.30
67005;HTU21D;53920;51.094;5.902;2023-08-24T02:36:57;20.17;66.39
67005;HTU21D;53920;51.094;5.902;2023-08-24T02:39:23;20.16;66.43
67005;HTU21D;53920;51.094;5.902;2023-08-24T02:41:49;20.15;66.43
67005;HTU21D;53920;51.094;5.902;2023-08-24T02:44:15;20.12;66.73
67005;HTU21D;53920;51.094;5.902;2023-08-24T02:46:44;20.12;66.95
67005;HTU21D;53920;51.094;5.902;2023-08-24T02:49:10;20.12;66.84
67005;HTU21D;53920;51.094;5.902;2023-08-24T02:51:36;20.15;67.18
67005;HTU21D;53920;51.094;5.902;2023-08-24T02:54:01;20.19;66.91
67005;HTU21D;53920;51.094;5.902;2023-08-24T02:56:27;20.24;66.60
67005;HTU21D;53920;51.094;5.902;2023-08-24T02:58:53;20.28;66.73
67005;HTU21D;53920;51.094;5.902;2023-08-24T03:01:19;20.32;66.58
67005;HTU21D;53920;51.094;5.902;2023-08-24T03:03:45;20.37;66.58
67005;HTU21D;53920;51.094;5.902;2023-08-24T03:06:11;20.37;66.54
67005;HTU21D;53920;51.094;5.902;2023-08-24T03:08:37;20.41;66.46
67005;HTU21D;53920;51.094;5.902;2023-08-24T03:11:04;20.44;66.30
67005;HTU21D;53920;51.094;5.902;2023-08-24T03:13:31;20.51;66.43
67005;HTU21D;53920;51.094;5.902;2023-08-24T03:15:56;20.54;66.40
67005;HTU21D;53920;51.094;5.902;2023-08-24T03:18:27;20.46;66.94
67005;HTU21D;53920;51.094;5.902;2023-08-24T03:20:52;20.34;67.61
67005;HTU21D;53920;51.094;5.902;2023-08-24T03:23:18;20.24;68.20
67005;HTU21D;53920;51.094;5.902;2023-08-24T03:25:44;20.03;69.29
67005;HTU21D;53920;51.094;5.902;2023-08-24T03:28:10;19.91;70.05
67005;HTU21D;53920;51.094;5.902;2023-08-24T03:30:39;19.87;70.46
67005;HTU21D;53920;51.094;5.902;2023-08-24T03:33:05;19.79;70.85
67005;HTU21D;53920;51.094;5.902;2023-08-24T03:35:32;19.60;71.75
67005;HTU21D;53920;51.094;5.902;2023-08-24T03:37:58;19.43;72.76
67005;HTU21D;53920;51.094;5.902;2023-08-24T03:40:25;19.23;73.63
67005;HTU21D;53920;51.094;5.902;2023-08-24T03:42:52;18.98;74.70
67005;HTU21D;53920;51.094;5.902;2023-08-24T03:45:19;18.76;75.70
67005;HTU21D;53920;51.094;5.902;2023-08-24T03:47:46;18.71;76.04
67005;HTU21D;53920;51.094;5.902;2023-08-24T03:50:12;18.58;76.66
67005;HTU21D;53920;51.094;5.902;2023-08-24T03:52:38;18.54;77.05
67005;HTU21D;53920;51.094;5.902;2023-08-24T03:55:06;18.57;76.97
67005;HTU21D;53920;51.094;5.902;2023-08-24T03:57:33;18.56;77.05
67005;HTU21D;53920;51.094;5.902;2023-08-24T03:59:58;18.55;77.10
67005;HTU21D;53920;51.094;5.902;2023-08-24T04:02:24;18.47;77.42
67005;HTU21D;53920;51.094;5.902;2023-08-24T04:04:51;18.36;77.83
67005;HTU21D;53920;51.094;5.902;2023-08-24T04:07:17;18.28;78.16
67005;HTU21D;53920;51.094;5.902;2023-08-24T04:09:47;18.24;78.34
67005;HTU21D;53920;51.094;5.902;2023-08-24T04:12:13;18.25;78.43
67005;HTU21D;53920;51.094;5.902;2023-08-24T04:14:38;18.24;78.68
67005;HTU21D;53920;51.094;5.902;2023-08-24T04:17:04;18.29;78.56
67005;HTU21D;53920;51.094;5.902;2023-08-24T04:19:31;18.37;78.69
67005;HTU21D;53920;51.094;5.902;2023-08-24T04:21:57;18.44;78.75
67005;HTU21D;53920;51.094;5.902;2023-08-24T04:24:23;18.56;78.90
67005;HTU21D;53920;51.094;5.902;2023-08-24T04:26:50;18.68;78.92
67005;HTU21D;53920;51.094;5.902;2023-08-24T04:29:17;18.73;78.80
67005;HTU21D;53920;51.094;5.902;2023-08-24T04:31:43;18.83;78.75
67005;HTU21D;53920;51.094;5.902;2023-08-24T04:34:08;18.89;77.98
67005;HTU21D;53920;51.094;5.902;2023-08-24T04:36:35;18.92;77.66
67005;HTU21D;53920;51.094;5.902;2023-08-24T04:39:00;18.86;77.74
67005;HTU21D;53920;51.094;5.902;2023-08-24T04:41:27;18.74;77.92
67005;HTU21D;53920;51.094;5.902;2023-08-24T04:43:53;18.76;77.91
67005;HTU21D;53920;51.094;5.902;2023-08-24T04:46:19;18.78;77.85
67005;HTU21D;53920;51.094;5.902;2023-08-24T04:48:45;18.88;77.53
67005;HTU21D;53920;51.094;5.902;2023-08-24T04:51:11;18.95;77.08
67005;HTU21D;53920;51.094;5.902;2023-08-24T04:53:36;18.97;76.84
67005;HTU21D;53920;51.094;5.902;2023-08-24T04:56:02;18.92;76.81
67005;HTU21D;53920;51.094;5.902;2023-08-24T04:58:28;18.87;76.98
67005;HTU21D;53920;51.094;5.902;2023-08-24T05:00:54;18.86;76.90
67005;HTU21D;53920;51.094;5.902;2023-08-24T05:03:21;18.91;76.85
67005;HTU21D;53920;51.094;5.902;2023-08-24T05:05:47;18.97;76.79
67005;HTU21D;53920;51.094;5.902;2023-08-24T05:08:13;19.10;76.68
67005;HTU21D;53920;51.094;5.902;2023-08-24T05:10:40;19.23;77.07
67005;HTU21D;53920;51.094;5.902;2023-08-24T05:13:06;19.36;77.26
67005;HTU21D;53920;51.094;5.902;2023-08-24T05:15:32;19.40;77.31
67005;HTU21D;53920;51.094;5.902;2023-08-24T05:17:58;19.47;77.25
67005;HTU21D;53920;51.094;5.902;2023-08-24T05:20:25;19.50;77.17
67005;HTU21D;53920;51.094;5.902;2023-08-24T05:22:52;19.52;76.84
67005;HTU21D;53920;51.094;5.902;2023-08-24T05:25:21;19.50;76.29
67005;HTU21D;53920;51.094;5.902;2023-08-24T05:27:47;19.44;75.82
67005;HTU21D;53920;51.094;5.902;2023-08-24T05:30:13;19.33;75.92
67005;HTU21D;53920;51.094;5.902;2023-08-24T05:32:39;19.27;75.95
67005;HTU21D;53920;51.094;5.902;2023-08-24T05:35:06;19.23;76.15
67005;HTU21D;53920;51.094;5.902;2023-08-24T05:37:33;19.20;76.79
